パリ/シャルル・ド・ゴール の空港の天気 - METARとTAF

シャルル・ド・ゴール国際空港(パリ) ( LFPG / CDG ) - フランス Paris
飛行場実況気象(Metar)
観測時間10/16 08:30 CEST (10/16 06:30 UTC)
風向・風速不定 2m/s
視程10km以上
天気現象
なし
気温17℃
湿度59%
気圧1017hPa
METARLFPG 160630Z VRB03KT CAVOK 17/09 Q1017 NOSIG
過去の天気等 Google飛行場航空写真 Wunderground天気予報

過去48時間のMETAR

飛行場予報(TAF)
発表時間: 10/16 07:00 CEST (10/16 05:00 UTC)
予報対象時間: 16日8時 CEST ~ 17日14時 CEST
風向・風速不定 1m/s
視程10km以上
なし
17日6時 CEST ~ 17日10時 CEST に一時的に
視程4000m
天気現象もや
17日7時 CEST ~ 17日9時 CEST に 確率 30% で一時的に
視程2000m
天気現象もや
全天を覆う雲 雲底高度 30m
TAF LFPG 160500Z 1606/1712 VRB02KT CAVOK TX24/1614Z TN13/1706Z
TEMPO 1704/1708 4000 BR
PROB30 TEMPO 1705/1707 2000 BR OVC001